Time;durP1;ratioP1;P1;durP2;ratioP2;P2;SDS_P1;SDS_P2;PMS_P1;PMS_P2;Temp;Humidity;BMP_temperature;BMP_pressure;BME280_temperature;BME280_humidity;BME280_pressure;Samples;Min_cycle;Max_cycle;Signal;HPM_P1;HPM_P2
2022/05/01 00:02:19;;;;;;;12.80;6.22;;;;;;;12.43;nan;-24164.13;4954582;28;20230;-71
2022/05/01 00:04:45;;;;;;;8.02;5.85;;;;;;;12.19;nan;-24157.50;4960563;28;20184;-71
2022/05/01 00:07:12;;;;;;;11.68;6.50;;;;;;;12.47;nan;-24165.09;4957057;28;20213;-70
2022/05/01 00:09:40;;;;;;;10.15;6.85;;;;;;;12.03;nan;-24153.00;4959201;28;20202;-69
2022/05/01 00:12:07;;;;;;;8.35;6.45;;;;;;;12.04;nan;-24153.28;4960101;28;20220;-69
2022/05/01 00:14:33;;;;;;;10.52;7.47;;;;;;;11.93;nan;-24150.31;4959268;28;20178;-70
2022/05/01 00:16:58;;;;;;;11.10;7.55;;;;;;;12.26;nan;-24159.34;4959765;28;20185;-70
2022/05/01 00:19:24;;;;;;;12.27;7.32;;;;;;;12.37;nan;-24162.44;4958774;28;20204;-70
2022/05/01 00:21:49;;;;;;;13.15;7.93;;;;;;;12.16;nan;-24156.53;4956443;28;20649;-71
2022/05/01 00:24:15;;;;;;;11.23;7.50;;;;;;;12.47;nan;-24165.09;4956410;28;20604;-70
2022/05/01 00:26:40;;;;;;;10.65;7.53;;;;;;;12.45;nan;-24164.53;4959403;28;20184;-70
2022/05/01 00:29:06;;;;;;;10.95;7.88;;;;;;;12.41;nan;-24163.56;4957646;28;20213;-70
2022/05/01 00:31:32;;;;;;;11.38;8.40;;;;;;;12.42;nan;-24163.69;4958643;28;20679;-70
2022/05/01 00:36:42;;;;;;;11.27;8.25;;;;;;;12.19;nan;-24157.50;4953931;29;20286;-70
2022/05/01 00:39:08;;;;;;;11.48;9.02;;;;;;;11.91;nan;-24149.63;4956289;28;20256;-71
2022/05/01 00:41:39;;;;;;;12.90;8.77;;;;;;;12.17;nan;-24156.94;4956998;28;20219;-70
2022/05/01 00:44:12;;;;;;;11.75;8.60;;;;;;;12.52;nan;-24166.66;4960248;28;20200;-70
2022/05/01 00:46:41;;;;;;;12.02;8.18;;;;;;;12.59;nan;-24168.63;4957992;28;20348;-70
2022/05/01 00:49:09;;;;;;;12.13;8.68;;;;;;;12.35;nan;-24162.00;4957839;28;20201;-71
2022/05/01 00:51:44;;;;;;;14.57;9.55;;;;;;;12.81;nan;-24174.66;4955443;28;20186;-71
2022/05/01 00:54:11;;;;;;;16.02;10.13;;;;;;;12.39;nan;-24163.13;4957240;28;20552;-71
2022/05/01 00:56:40;;;;;;;19.27;13.35;;;;;;;12.46;nan;-24164.81;4955894;28;20182;-71
2022/05/01 00:59:06;;;;;;;24.05;14.52;;;;;;;11.59;nan;-24140.59;4959821;28;20189;-71
2022/05/01 01:01:33;;;;;;;20.15;12.63;;;;;;;12.19;nan;-24157.50;4955471;28;20237;-70
2022/05/01 01:03:59;;;;;;;19.42;12.40;;;;;;;12.61;nan;-24169.03;4959929;28;20210;-70
2022/05/01 01:06:24;;;;;;;19.92;12.68;;;;;;;12.52;nan;-24166.66;4956189;28;20662;-71
2022/05/01 01:08:50;;;;;;;16.05;11.07;;;;;;;12.46;nan;-24164.81;4953408;28;20261;-69
2022/05/01 01:11:16;;;;;;;17.33;12.27;;;;;;;12.26;nan;-24159.47;4956909;28;20607;-71
2022/05/01 01:13:42;;;;;;;16.50;10.68;;;;;;;12.52;nan;-24166.50;4950656;28;20265;-70
2022/05/01 01:16:10;;;;;;;25.27;14.43;;;;;;;12.18;nan;-24157.09;4949113;29;20284;-70
2022/05/01 01:18:39;;;;;;;18.83;13.10;;;;;;;11.79;nan;-24146.25;4958013;28;20259;-69
2022/05/01 01:21:09;;;;;;;17.08;11.35;;;;;;;11.97;nan;-24151.31;4947426;28;20174;-69
2022/05/01 01:23:36;;;;;;;15.50;10.98;;;;;;;11.70;nan;-24143.84;4943978;29;20189;-70
2022/05/01 01:26:04;;;;;;;14.13;10.50;;;;;;;11.81;nan;-24146.94;4960405;28;20194;-69
2022/05/01 01:28:32;;;;;;;15.23;11.23;;;;;;;11.73;nan;-24144.56;4964351;28;20185;-69
2022/05/01 01:33:44;;;;;;;19.10;12.75;;;;;;;11.75;nan;-24145.13;4955060;28;20197;-70
2022/05/01 01:36:10;;;;;;;19.48;12.43;;;;;;;11.56;nan;-24139.91;4962638;28;20186;-70
2022/05/01 01:38:39;;;;;;;16.27;10.98;;;;;;;11.35;nan;-24133.97;4960657;28;20197;-70
2022/05/01 01:41:09;;;;;;;20.13;11.40;;;;;;;11.14;nan;-24128.06;4947845;28;20250;-70
2022/05/01 01:43:36;;;;;;;15.55;11.43;;;;;;;11.45;nan;-24136.81;4959742;28;20190;-70
2022/05/01 01:46:02;;;;;;;13.40;9.80;;;;;;;11.34;nan;-24133.84;4959397;28;20186;-70
2022/05/01 01:48:28;;;;;;;14.57;10.52;;;;;;;11.42;nan;-24135.97;4962664;28;20276;-70
2022/05/01 01:50:59;;;;;;;12.25;10.35;;;;;;;11.17;nan;-24129.03;4954776;28;20221;-70
2022/05/01 01:53:25;;;;;;;16.80;12.52;;;;;;;11.34;nan;-24133.69;4963848;28;20185;-70
2022/05/01 01:55:51;;;;;;;17.55;13.00;;;;;;;11.35;nan;-24133.97;4960609;28;20189;-69
2022/05/01 01:58:18;;;;;;;17.42;12.38;;;;;;;11.22;nan;-24130.47;4946930;28;20183;-69
2022/05/01 02:00:44;;;;;;;19.25;13.80;;;;;;;11.10;nan;-24126.94;4961346;28;20308;-70
2022/05/01 02:03:09;;;;;;;23.67;13.88;;;;;;;11.22;nan;-24130.31;4959128;28;20325;-70
2022/05/01 02:05:35;;;;;;;21.48;12.95;;;;;;;11.00;nan;-24124.25;4961232;28;20190;-70
2022/05/01 02:08:01;;;;;;;17.40;12.07;;;;;;;10.76;nan;-24117.47;4960939;28;20174;-70
2022/05/01 02:10:27;;;;;;;18.33;11.07;;;;;;;10.81;nan;-24119.03;4960619;28;20714;-70
2022/05/01 02:12:54;;;;;;;16.30;11.05;;;;;;;10.75;nan;-24117.19;4960102;28;20177;-70
2022/05/01 02:15:20;;;;;;;15.38;10.80;;;;;;;10.76;nan;-24117.63;4957997;28;20178;-70
2022/05/01 02:17:48;;;;;;;14.40;10.00;;;;;;;10.67;nan;-24114.94;4960235;28;20212;-70
2022/05/01 02:20:14;;;;;;;17.38;10.10;;;;;;;10.60;nan;-24113.13;4962100;28;20188;-70
2022/05/01 02:22:42;;;;;;;16.20;10.43;;;;;;;10.58;nan;-24112.69;4960936;28;20182;-69
2022/05/01 02:25:12;;;;;;;14.63;10.40;;;;;;;10.20;nan;-24101.97;4962595;28;20191;-70
2022/05/01 02:27:38;;;;;;;14.85;10.75;;;;;;;10.22;nan;-24102.53;4960652;28;20189;-70
2022/05/01 02:30:05;;;;;;;15.17;10.40;;;;;;;10.07;nan;-24098.28;4962639;28;20259;-70
2022/05/01 02:32:30;;;;;;;15.47;10.43;;;;;;;9.84;nan;-24091.94;4959338;28;20657;-70
2022/05/01 02:34:56;;;;;;;14.60;11.00;;;;;;;10.32;nan;-24105.22;4958357;28;20185;-69
2022/05/01 02:37:21;;;;;;;14.47;10.30;;;;;;;10.33;nan;-24105.50;4960669;28;20185;-69
2022/05/01 02:39:47;;;;;;;12.77;9.23;;;;;;;9.99;nan;-24096.16;4960358;28;20190;-70
2022/05/01 02:42:13;;;;;;;16.20;10.03;;;;;;;10.24;nan;-24103.09;4958121;28;20185;-71
2022/05/01 02:44:39;;;;;;;13.33;9.33;;;;;;;10.00;nan;-24096.31;4960699;28;20186;-71
2022/05/01 02:47:05;;;;;;;13.40;9.20;;;;;;;10.07;nan;-24098.28;4962237;28;20226;-71
2022/05/01 02:49:31;;;;;;;16.33;8.90;;;;;;;10.09;nan;-24098.84;4958205;28;20201;-71
2022/05/01 02:51:56;;;;;;;17.30;10.07;;;;;;;10.10;nan;-24099.13;4957645;28;20583;-71
2022/05/01 02:54:22;;;;;;;13.43;9.93;;;;;;;9.96;nan;-24095.19;4958522;28;20217;-71
2022/05/01 02:56:49;;;;;;;15.67;10.57;;;;;;;10.01;nan;-24096.59;4958877;28;20961;-71
2022/05/01 02:59:16;;;;;;;16.37;10.43;;;;;;;9.95;nan;-24094.91;4961494;28;20184;-71
2022/05/01 03:01:42;;;;;;;15.87;10.27;;;;;;;10.01;nan;-24096.59;4961054;28;20716;-71
2022/05/01 03:04:07;;;;;;;19.37;11.83;;;;;;;9.74;nan;-24089.25;4959802;28;20213;-71
2022/05/01 03:06:34;;;;;;;16.97;11.10;;;;;;;9.77;nan;-24090.09;4957262;28;20639;-71
2022/05/01 03:09:00;;;;;;;19.63;10.53;;;;;;;10.02;nan;-24096.88;4961952;28;20221;-71
2022/05/01 03:11:25;;;;;;;14.87;10.30;;;;;;;10.01;nan;-24096.72;4959750;28;20274;-71
2022/05/01 03:13:51;;;;;;;14.97;10.63;;;;;;;9.81;nan;-24091.09;4958629;28;20186;-71
2022/05/01 03:16:16;;;;;;;15.73;11.10;;;;;;;10.00;nan;-24096.44;4961583;28;20751;-70
2022/05/01 03:24:09;;;;;;;16.97;10.37;;;;;;;9.86;nan;-24092.50;4953384;28;20199;-70
2022/05/01 03:26:35;;;;;;;16.63;11.23;;;;;;;9.86;nan;-24092.34;4957472;28;20688;-70
2022/05/01 03:29:00;;;;;;;14.40;10.17;;;;;;;10.30;nan;-24104.78;4959483;28;20205;-70
2022/05/01 03:31:28;;;;;;;14.60;10.37;;;;;;;10.44;nan;-24108.59;4957448;28;20691;-69
2022/05/01 03:33:54;;;;;;;15.57;10.13;;;;;;;10.60;nan;-24113.13;4955116;29;20178;-72
2022/05/01 03:36:20;;;;;;;16.57;9.93;;;;;;;10.82;nan;-24119.31;4959592;28;20181;-70
2022/05/01 03:38:46;;;;;;;15.87;10.80;;;;;;;11.12;nan;-24127.63;4958209;28;20299;-70
2022/05/01 03:41:16;;;;;;;14.88;9.43;;;;;;;11.68;nan;-24143.13;4959467;28;20252;-70
2022/05/01 03:43:42;;;;;;;12.77;9.50;;;;;;;12.22;nan;-24158.22;4959361;28;20186;-70
2022/05/01 03:46:08;;;;;;;13.27;9.02;;;;;;;12.81;nan;-24174.66;4961369;28;20285;-70
2022/05/01 03:48:34;;;;;;;14.82;9.27;;;;;;;13.41;nan;-24191.25;4957218;28;20696;-70
2022/05/01 03:51:01;;;;;;;12.38;8.40;;;;;;;12.92;nan;-24177.63;4963060;28;20194;-70
2022/05/01 03:53:26;;;;;;;13.45;8.38;;;;;;;14.27;nan;-24215.25;4959095;28;20712;-70
2022/05/01 03:55:52;;;;;;;11.23;8.02;;;;;;;14.77;nan;-24229.00;4959925;28;21333;-70
2022/05/01 03:58:21;;;;;;;11.05;7.82;;;;;;;15.06;nan;-24237.00;4960432;28;20178;-70
2022/05/01 04:00:47;;;;;;;10.38;7.90;;;;;;;15.24;nan;-24242.16;4959046;28;20236;-69
2022/05/01 04:03:19;;;;;;;9.75;7.30;;;;;;;16.05;nan;-24264.56;4960528;28;20173;-69
2022/05/01 04:05:45;;;;;;;12.52;7.50;;;;;;;16.66;nan;-24281.50;4959032;28;20647;-70
2022/05/01 04:08:11;;;;;;;12.65;7.82;;;;;;;16.98;nan;-24290.28;4961496;28;20676;-70
2022/05/01 04:10:42;;;;;;;11.02;7.50;;;;;;;16.52;nan;-24277.56;4959360;28;20218;-70
2022/05/01 04:13:08;;;;;;;9.88;7.05;;;;;;;17.08;nan;-24293.09;4967768;28;20186;-70
2022/05/01 04:15:36;;;;;;;11.38;7.38;;;;;;;17.50;nan;-24304.53;4962567;28;20189;-70
2022/05/01 04:18:05;;;;;;;11.02;7.20;;;;;;;17.74;nan;-24311.09;4958095;28;20241;-70
2022/05/01 04:20:32;;;;;;;10.55;7.32;;;;;;;18.35;nan;-24328.09;4954884;28;20210;-70
2022/05/01 04:22:59;;;;;;;11.40;7.40;;;;;;;18.58;nan;-24334.22;4959690;28;20177;-69
2022/05/01 04:25:27;;;;;;;19.33;7.75;;;;;;;18.35;nan;-24328.09;4956643;28;20213;-70
2022/05/01 04:27:57;;;;;;;10.02;7.35;;;;;;;17.82;nan;-24313.47;4958852;28;20213;-71
2022/05/01 04:30:22;;;;;;;10.98;8.20;;;;;;;16.77;nan;-24284.56;4959278;28;20236;-71
2022/05/01 04:32:56;;;;;;;10.88;8.15;;;;;;;17.05;nan;-24292.09;4958062;28;20213;-71
2022/05/01 04:35:31;;;;;;;13.75;8.77;;;;;;;15.85;nan;-24259.13;4960393;28;20261;-69
2022/05/01 04:38:01;;;;;;;12.48;8.70;;;;;;;16.93;nan;-24288.88;4957458;28;20173;-72
2022/05/01 04:40:31;;;;;;;14.38;9.02;;;;;;;16.96;nan;-24289.59;4959719;28;20185;-71
2022/05/01 04:43:14;;;;;;;13.38;8.68;;;;;;;17.07;nan;-24292.81;4960440;28;20204;-71
2022/05/01 04:45:43;;;;;;;13.18;8.98;;;;;;;16.24;nan;-24269.75;4952569;28;20181;-72
2022/05/01 04:48:10;;;;;;;11.65;8.32;;;;;;;16.57;nan;-24278.97;4959664;28;20626;-73
2022/05/01 04:50:36;;;;;;;11.85;8.45;;;;;;;17.06;nan;-24292.38;4959145;28;20244;-72
2022/05/01 04:53:03;;;;;;;11.85;8.65;;;;;;;16.96;nan;-24289.59;4957648;28;20201;-72
2022/05/01 04:55:30;;;;;;;10.15;7.97;;;;;;;16.05;nan;-24264.44;4961326;28;20178;-73
2022/05/01 04:57:56;;;;;;;11.98;8.15;;;;;;;16.11;nan;-24266.09;4940342;29;20285;-75
2022/05/01 05:00:21;;;;;;;12.57;8.18;;;;;;;16.41;nan;-24274.50;4956726;28;20182;-75
2022/05/01 05:02:50;;;;;;;14.05;8.38;;;;;;;16.15;nan;-24267.38;4946442;28;20201;-73
2022/05/01 05:05:16;;;;;;;12.43;8.10;;;;;;;16.19;nan;-24268.47;4968267;28;20190;-74
2022/05/01 05:07:42;;;;;;;11.85;8.82;;;;;;;15.96;nan;-24262.06;4962820;28;20197;-73
2022/05/01 05:10:09;;;;;;;12.30;8.93;;;;;;;15.96;nan;-24262.06;4940707;28;20205;-76
2022/05/01 05:12:36;;;;;;;12.35;8.52;;;;;;;15.86;nan;-24259.25;4958166;28;20186;-75
2022/05/01 05:15:09;;;;;;;13.88;9.48;;;;;;;15.75;nan;-24256.31;4940696;28;20192;-73
2022/05/01 05:17:35;;;;;;;14.00;10.80;;;;;;;15.55;nan;-24250.72;4953204;28;20200;-78
2022/05/01 05:20:01;;;;;;;15.95;11.57;;;;;;;15.25;nan;-24242.31;4961046;28;20185;-75
2022/05/01 05:22:27;;;;;;;14.73;11.02;;;;;;;15.24;nan;-24242.03;4940034;28;20182;-74
2022/05/01 05:24:53;;;;;;;19.52;11.40;;;;;;;15.41;nan;-24246.78;4955180;28;20174;-76
2022/05/01 05:27:21;;;;;;;17.10;11.40;;;;;;;15.22;nan;-24241.59;4955274;28;20570;-78
2022/05/01 05:29:47;;;;;;;14.52;10.80;;;;;;;15.46;nan;-24248.34;4953459;29;20214;-76
2022/05/01 05:32:13;;;;;;;18.58;11.68;;;;;;;15.56;nan;-24251.00;4955118;28;20210;-77
2022/05/01 05:34:39;;;;;;;16.17;11.40;;;;;;;14.95;nan;-24234.19;4955046;28;20182;-76
2022/05/01 05:37:05;;;;;;;15.50;11.50;;;;;;;15.24;nan;-24242.16;4953474;28;20194;-77
2022/05/01 05:39:30;;;;;;;14.50;10.52;;;;;;;15.50;nan;-24249.31;4937569;29;20185;-76
2022/05/01 05:41:56;;;;;;;17.55;10.90;;;;;;;15.50;nan;-24249.31;4956169;28;20278;-76
2022/05/01 05:44:22;;;;;;;15.73;10.55;;;;;;;15.66;nan;-24253.66;4955179;28;20188;-77
2022/05/01 05:46:47;;;;;;;16.75;11.80;;;;;;;15.76;nan;-24256.47;4952841;29;20193;-76
2022/05/01 05:49:13;;;;;;;19.83;12.63;;;;;;;15.78;nan;-24257.16;4935805;29;20673;-75
2022/05/01 05:51:38;;;;;;;15.57;11.27;;;;;;;15.67;nan;-24253.94;4956687;29;20178;-76
2022/05/01 05:54:04;;;;;;;17.23;12.60;;;;;;;15.62;nan;-24252.69;4954745;29;20594;-77
2022/05/01 05:56:29;;;;;;;17.33;12.20;;;;;;;15.91;nan;-24260.78;4939267;29;20178;-73
2022/05/01 05:58:56;;;;;;;18.85;12.55;;;;;;;15.93;nan;-24261.06;4956774;29;20200;-76
2022/05/01 06:01:21;;;;;;;17.58;12.48;;;;;;;15.64;nan;-24253.09;4956441;28;20240;-74
2022/05/01 06:03:47;;;;;;;21.38;12.55;;;;;;;16.03;nan;-24264.00;4956170;29;20174;-76
2022/05/01 06:06:14;;;;;;;18.63;11.98;;;;;;;15.90;nan;-24260.38;4956715;29;20174;-76
2022/05/01 06:08:39;;;;;;;16.77;11.15;;;;;;;16.10;nan;-24265.81;4957837;28;20186;-71
2022/05/01 06:11:05;;;;;;;16.35;11.13;;;;;;;16.46;nan;-24275.88;4941027;29;20220;-75
2022/05/01 06:13:31;;;;;;;15.38;11.10;;;;;;;16.76;nan;-24284.28;4956169;29;20193;-75
2022/05/01 06:15:57;;;;;;;18.25;10.60;;;;;;;16.67;nan;-24281.63;4939316;29;20182;-77
2022/05/01 06:18:22;;;;;;;17.60;9.98;;;;;;;16.95;nan;-24289.31;4958098;28;20194;-74
2022/05/01 06:20:49;;;;;;;15.23;10.55;;;;;;;16.82;nan;-24285.81;4958004;28;20178;-78
2022/05/01 06:23:15;;;;;;;15.18;9.48;;;;;;;16.88;nan;-24287.50;4951847;29;20298;-75
2022/05/01 06:25:44;;;;;;;12.55;9.23;;;;;;;17.17;nan;-24295.44;4959806;29;20689;-71
2022/05/01 06:28:10;;;;;;;15.80;9.40;;;;;;;17.02;nan;-24291.25;4979067;29;20182;-77
2022/05/01 06:30:39;;;;;;;15.10;9.45;;;;;;;17.11;nan;-24293.91;4958060;29;20288;-77
2022/05/01 06:33:07;;;;;;;20.00;9.48;;;;;;;16.96;nan;-24289.72;4954685;28;20188;-73
2022/05/01 06:35:32;;;;;;;14.60;9.93;;;;;;;16.75;nan;-24283.88;4955880;29;20732;-74
2022/05/01 06:37:58;;;;;;;13.88;9.98;;;;;;;16.77;nan;-24284.56;4955407;29;20170;-77
2022/05/01 06:40:24;;;;;;;14.75;9.50;;;;;;;16.95;nan;-24289.44;4955962;29;20162;-76
2022/05/01 06:42:50;;;;;;;14.48;9.98;;;;;;;17.46;nan;-24303.56;4955951;29;20250;-73
2022/05/01 06:45:15;;;;;;;13.95;9.52;;;;;;;17.60;nan;-24307.31;4955679;28;20262;-76
2022/05/01 06:47:41;;;;;;;13.02;9.68;;;;;;;17.50;nan;-24304.53;4955590;29;20253;-74
2022/05/01 06:50:06;;;;;;;16.00;9.77;;;;;;;17.43;nan;-24302.56;4955368;29;20673;-75
2022/05/01 06:52:32;;;;;;;13.18;8.88;;;;;;;17.50;nan;-24304.53;4955058;29;20190;-73
2022/05/01 06:54:59;;;;;;;14.75;9.10;;;;;;;17.57;nan;-24306.63;4955261;29;20181;-76
2022/05/01 06:57:25;;;;;;;13.02;9.20;;;;;;;18.06;nan;-24320.16;4955791;29;20197;-78
2022/05/01 06:59:51;;;;;;;14.07;9.43;;;;;;;18.50;nan;-24332.28;4937744;29;20654;-76
2022/05/01 07:02:17;;;;;;;11.75;8.45;;;;;;;18.58;nan;-24334.38;4955080;28;20330;-78
2022/05/01 07:04:43;;;;;;;13.02;7.90;;;;;;;18.82;nan;-24340.91;4954186;29;20194;-74
2022/05/01 07:07:08;;;;;;;12.07;7.90;;;;;;;18.64;nan;-24336.03;4953500;29;20190;-78
2022/05/01 07:09:34;;;;;;;17.73;8.30;;;;;;;18.92;nan;-24343.84;4955163;29;20217;-74
2022/05/01 07:12:00;;;;;;;11.50;8.32;;;;;;;18.35;nan;-24328.09;4938363;29;20203;-78
2022/05/01 07:14:25;;;;;;;10.68;7.32;;;;;;;18.15;nan;-24322.53;4953625;29;20178;-77
2022/05/01 07:16:51;;;;;;;9.40;7.18;;;;;;;17.77;nan;-24311.91;4955848;29;20170;-76
2022/05/01 07:19:16;;;;;;;9.10;7.25;;;;;;;18.28;nan;-24326.00;4955012;29;20174;-76
2022/05/01 07:21:42;;;;;;;11.18;7.57;;;;;;;18.59;nan;-24334.50;4938572;28;20193;-75
2022/05/01 07:24:08;;;;;;;9.80;6.90;;;;;;;18.99;nan;-24345.66;4941151;29;20578;-77
2022/05/01 07:26:34;;;;;;;9.90;6.85;;;;;;;18.80;nan;-24340.34;4943452;28;20198;-76
2022/05/01 07:29:04;;;;;;;10.35;6.97;;;;;;;19.32;nan;-24354.69;4957718;28;20206;-77
2022/05/01 07:31:30;;;;;;;8.35;6.22;;;;;;;19.87;nan;-24369.84;4954529;28;20194;-74
2022/05/01 07:33:56;;;;;;;11.60;7.05;;;;;;;20.11;nan;-24376.50;4954855;29;20201;-78
2022/05/01 07:36:23;;;;;;;9.68;7.43;;;;;;;20.07;nan;-24375.25;4953483;28;20232;-77
2022/05/01 07:38:49;;;;;;;9.48;7.30;;;;;;;20.18;nan;-24378.47;4954831;29;20158;-74
2022/05/01 07:41:18;;;;;;;10.02;7.55;;;;;;;20.72;nan;-24393.19;4937632;29;20197;-72
2022/05/01 07:43:48;;;;;;;9.98;7.18;;;;;;;20.90;nan;-24398.16;4954591;29;20181;-75
2022/05/01 07:46:13;;;;;;;11.88;7.10;;;;;;;21.01;nan;-24401.22;4954743;29;20174;-73
2022/05/01 07:48:39;;;;;;;11.45;7.60;;;;;;;20.96;nan;-24399.84;4954094;29;20229;-75
2022/05/01 07:51:05;;;;;;;9.80;6.85;;;;;;;21.14;nan;-24404.69;4954292;29;20592;-76
2022/05/01 07:53:33;;;;;;;8.45;6.40;;;;;;;21.25;nan;-24407.75;4937227;29;20186;-75
2022/05/01 07:55:59;;;;;;;9.32;6.60;;;;;;;21.35;nan;-24410.38;4954536;29;20178;-76
2022/05/01 07:58:24;;;;;;;8.02;6.57;;;;;;;21.37;nan;-24411.06;4951715;28;20502;-75
2022/05/01 08:00:50;;;;;;;10.48;6.68;;;;;;;21.30;nan;-24409.13;4947447;29;20249;-76
2022/05/01 08:05:59;;;;;;;8.48;6.15;;;;;;;21.63;nan;-24418.00;4935016;29;20193;-72
2022/05/01 08:08:25;;;;;;;6.95;5.75;;;;;;;21.84;nan;-24423.81;4935134;29;20182;-77
2022/05/01 08:10:51;;;;;;;7.97;5.60;;;;;;;21.65;nan;-24418.69;4917664;29;20218;-76
2022/05/01 08:13:16;;;;;;;7.05;5.90;;;;;;;20.88;nan;-24397.63;4934174;29;20185;-76
2022/05/01 08:15:42;;;;;;;7.05;5.70;;;;;;;20.44;nan;-24385.41;4934871;29;20182;-78
2022/05/01 08:21:10;;;;;;;6.97;5.10;;;;;;;20.25;nan;-24380.41;4935228;29;20713;-77
2022/05/01 08:23:38;;;;;;;7.07;5.03;;;;;;;20.09;nan;-24375.81;4919697;29;20352;-75
2022/05/01 08:26:10;;;;;;;6.85;5.10;;;;;;;20.16;nan;-24377.75;4933535;29;20167;-75
2022/05/01 08:28:39;;;;;;;5.63;4.85;;;;;;;19.85;nan;-24369.44;4934739;29;20174;-77
2022/05/01 08:31:05;;;;;;;9.57;4.97;;;;;;;19.61;nan;-24362.63;4917470;29;20265;-76
2022/05/01 08:33:32;;;;;;;8.05;5.20;;;;;;;18.97;nan;-24345.22;4934850;29;20178;-79
2022/05/01 08:35:58;;;;;;;7.75;5.25;;;;;;;18.55;nan;-24333.53;4934629;29;20275;-79
2022/05/01 08:38:24;;;;;;;8.75;5.10;;;;;;;18.66;nan;-24336.59;4919710;29;20575;-72
2022/05/01 08:41:02;;;;;;;7.47;5.05;;;;;;;18.69;nan;-24337.28;4956549;29;20179;-72
2022/05/01 08:43:27;;;;;;;6.47;5.10;;;;;;;18.86;nan;-24342.16;4922712;29;20174;-75
2022/05/01 08:45:53;;;;;;;10.13;4.53;;;;;;;19.22;nan;-24351.91;4933346;29;20175;-73
2022/05/01 08:48:27;;;;;;;5.53;4.55;;;;;;;19.62;nan;-24363.03;4933672;29;20179;-75
2022/05/01 08:50:54;;;;;;;7.60;5.10;;;;;;;19.90;nan;-24370.53;4935104;29;20197;-74
2022/05/01 08:53:22;;;;;;;6.13;3.90;;;;;;;19.26;nan;-24353.16;4934311;29;20187;-74
2022/05/01 08:55:47;;;;;;;4.63;3.75;;;;;;;19.02;nan;-24346.47;4935369;29;20202;-73
2022/05/01 08:58:15;;;;;;;5.82;4.07;;;;;;;19.01;nan;-24346.19;4933659;29;20206;-74
2022/05/01 09:00:41;;;;;;;5.40;3.97;;;;;;;19.59;nan;-24362.19;4939235;28;20222;-72
2022/05/01 09:03:07;;;;;;;6.60;4.53;;;;;;;19.59;nan;-24362.19;4952001;29;20177;-72
2022/05/01 09:05:33;;;;;;;8.35;4.10;;;;;;;19.14;nan;-24349.81;4951957;29;20244;-75
2022/05/01 09:07:59;;;;;;;6.68;4.78;;;;;;;19.13;nan;-24349.53;4953523;29;20174;-72
2022/05/01 09:10:31;;;;;;;6.35;4.35;;;;;;;19.18;nan;-24350.78;4952149;29;20206;-73
2022/05/01 09:12:57;;;;;;;6.75;4.55;;;;;;;19.69;nan;-24364.84;4894674;28;20339;-75
2022/05/01 09:15:37;;;;;;;5.25;4.57;;;;;;;19.24;nan;-24352.47;4894927;29;20259;-73
2022/05/01 09:18:08;;;;;;;6.68;4.50;;;;;;;19.41;nan;-24357.34;4894489;29;20203;-74
2022/05/01 09:20:57;;;;;;;5.60;4.22;;;;;;;19.44;nan;-24357.88;4894133;29;20299;-75
2022/05/01 09:23:36;;;;;;;5.30;4.10;;;;;;;19.84;nan;-24369.16;4892979;29;20646;-72
2022/05/01 09:26:02;;;;;;;5.28;3.95;;;;;;;20.46;nan;-24385.97;4895879;29;20195;-75
2022/05/01 09:28:28;;;;;;;6.60;4.03;;;;;;;20.56;nan;-24388.75;4899213;29;20269;-72
2022/05/01 09:30:53;;;;;;;5.05;3.70;;;;;;;20.63;nan;-24390.69;4899555;29;20366;-73
2022/05/01 09:33:19;;;;;;;4.05;3.50;;;;;;;19.93;nan;-24371.38;4901129;29;20195;-73
2022/05/01 09:35:45;;;;;;;4.18;2.90;;;;;;;19.93;nan;-24371.50;4899237;29;20259;-75
2022/05/01 09:38:23;;;;;;;4.00;2.55;;;;;;;20.08;nan;-24375.69;4913539;29;20272;-70
2022/05/01 09:40:55;;;;;;;3.83;2.80;;;;;;;19.76;nan;-24366.94;4914172;29;20192;-73
2022/05/01 09:43:44;;;;;;;5.82;2.65;;;;;;;19.20;nan;-24351.34;4899327;29;20191;-68
2022/05/01 09:46:12;;;;;;;3.85;2.90;;;;;;;19.30;nan;-24354.13;4905687;29;20212;-68
2022/05/01 09:48:38;;;;;;;3.63;2.60;;;;;;;19.49;nan;-24359.41;4916942;29;20196;-70
2022/05/01 09:51:17;;;;;;;6.25;2.85;;;;;;;19.73;nan;-24366.09;4900844;29;20302;-73
2022/05/01 09:53:43;;;;;;;3.65;2.90;;;;;;;20.25;nan;-24380.41;4898623;29;20203;-74
2022/05/01 09:56:09;;;;;;;2.90;2.60;;;;;;;20.20;nan;-24379.00;4898813;29;20329;-70
2022/05/01 09:58:40;;;;;;;3.50;2.88;;;;;;;20.16;nan;-24377.91;4898891;29;20242;-72
2022/05/01 10:01:09;;;;;;;3.55;2.88;;;;;;;20.35;nan;-24383.03;4882123;29;20243;-71
2022/05/01 10:03:39;;;;;;;4.05;2.88;;;;;;;20.29;nan;-24381.38;4898187;29;20268;-69
2022/05/01 10:06:07;;;;;;;5.60;3.05;;;;;;;20.74;nan;-24393.72;4898567;29;20195;-70
2022/05/01 10:08:36;;;;;;;3.35;2.90;;;;;;;21.04;nan;-24402.06;4899314;29;20188;-72
2022/05/01 10:11:02;;;;;;;4.75;3.28;;;;;;;20.98;nan;-24400.38;4897244;29;20310;-72
2022/05/01 10:13:28;;;;;;;5.53;3.30;;;;;;;20.85;nan;-24396.78;4897562;29;20188;-73
2022/05/01 10:15:54;;;;;;;4.72;2.92;;;;;;;20.83;nan;-24396.22;4898840;29;20244;-70
2022/05/01 10:18:24;;;;;;;5.45;2.90;;;;;;;21.30;nan;-24409.13;4898514;29;20188;-71
2022/05/01 10:20:49;;;;;;;4.15;3.05;;;;;;;21.08;nan;-24403.16;4896328;29;20210;-75
2022/05/01 10:23:16;;;;;;;4.45;3.17;;;;;;;21.62;nan;-24417.72;4897202;29;20659;-74
2022/05/01 10:25:52;;;;;;;6.38;2.90;;;;;;;21.51;nan;-24414.81;4897230;29;20252;-74
2022/05/01 10:28:39;;;;;;;4.50;3.00;;;;;;;21.86;nan;-24424.50;4896993;29;20190;-72
2022/05/01 10:34:44;;;;;;;2.72;2.50;;;;;;;21.14;nan;-24404.84;4898389;29;20199;-67
2022/05/01 10:37:24;;;;;;;5.03;2.95;;;;;;;21.37;nan;-24411.06;4895186;29;20188;-66
2022/05/01 10:39:50;;;;;;;4.30;2.88;;;;;;;21.47;nan;-24413.69;4898034;29;20270;-67
2022/05/01 10:42:32;;;;;;;4.00;2.50;;;;;;;20.69;nan;-24392.34;4898132;29;20763;-68
2022/05/01 10:44:58;;;;;;;3.30;2.58;;;;;;;20.32;nan;-24382.06;4894238;29;20195;-67
2022/05/01 10:47:36;;;;;;;5.05;3.10;;;;;;;20.46;nan;-24385.97;4897970;29;20586;-69
2022/05/01 10:50:11;;;;;;;3.78;2.70;;;;;;;20.94;nan;-24399.28;4895718;29;20207;-67
2022/05/01 10:53:05;;;;;;;4.97;2.70;;;;;;;21.72;nan;-24420.63;4899674;29;20195;-69
2022/05/01 10:55:51;;;;;;;3.50;2.70;;;;;;;21.91;nan;-24425.91;4902326;29;20199;-68
2022/05/01 10:58:21;;;;;;;4.18;2.63;;;;;;;21.57;nan;-24416.63;4897492;29;20180;-68
2022/05/01 11:00:51;;;;;;;4.80;2.55;;;;;;;21.79;nan;-24422.44;4898513;29;20239;-68
2022/05/01 11:03:26;;;;;;;3.47;2.50;;;;;;;21.43;nan;-24412.59;4896358;29;20191;-67
2022/05/01 11:06:08;;;;;;;3.10;2.42;;;;;;;21.23;nan;-24407.03;4897098;29;20188;-67
2022/05/01 11:08:36;;;;;;;2.75;2.38;;;;;;;21.03;nan;-24401.63;4897406;29;20199;-67
2022/05/01 11:11:05;;;;;;;3.28;2.50;;;;;;;20.63;nan;-24390.81;4897132;29;20610;-65
2022/05/01 11:13:52;;;;;;;2.80;2.50;;;;;;;20.79;nan;-24395.13;4897454;29;20675;-67
2022/05/01 11:16:49;;;;;;;3.50;2.63;;;;;;;21.10;nan;-24403.72;4894976;29;20198;-66
2022/05/01 11:19:15;;;;;;;4.22;2.92;;;;;;;21.34;nan;-24410.09;4896873;29;20496;-66
2022/05/01 11:21:41;;;;;;;3.47;2.35;;;;;;;20.82;nan;-24395.94;4897519;29;20275;-69
2022/05/01 11:24:08;;;;;;;4.68;2.47;;;;;;;21.07;nan;-24402.88;4897563;29;20188;-67
2022/05/01 11:26:33;;;;;;;2.97;2.55;;;;;;;20.50;nan;-24387.06;4897427;29;20699;-65
2022/05/01 11:29:13;;;;;;;2.50;2.30;;;;;;;20.25;nan;-24380.41;4896253;29;20195;-69
2022/05/01 11:31:39;;;;;;;3.55;2.70;;;;;;;20.37;nan;-24383.47;4895601;29;20192;-67
2022/05/01 11:34:16;;;;;;;3.40;2.45;;;;;;;21.04;nan;-24402.06;4893728;29;20243;-67
2022/05/01 11:36:57;;;;;;;4.47;2.70;;;;;;;21.01;nan;-24401.09;4896580;29;20192;-69
2022/05/01 11:40:09;;;;;;;3.33;2.60;;;;;;;20.84;nan;-24396.50;4897008;29;20278;-67
2022/05/01 11:42:36;;;;;;;3.47;2.47;;;;;;;20.45;nan;-24385.81;4856585;29;20196;-67
2022/05/01 11:45:04;;;;;;;3.22;2.53;;;;;;;20.66;nan;-24391.50;4857341;29;20300;-66
2022/05/01 11:47:34;;;;;;;3.15;2.55;;;;;;;20.72;nan;-24393.19;4873127;29;20204;-65
2022/05/01 11:50:00;;;;;;;2.83;2.53;;;;;;;21.42;nan;-24412.31;4896620;29;20705;-66
2022/05/01 11:52:26;;;;;;;4.28;2.67;;;;;;;21.41;nan;-24412.19;4896185;29;20184;-68
2022/05/01 11:54:56;;;;;;;4.30;2.45;;;;;;;21.89;nan;-24425.34;4895575;29;20559;-65
2022/05/01 12:03:01;;;;;;;2.80;2.35;;;;;;;21.99;nan;-24428.13;4895529;29;20335;-67
2022/05/01 12:05:29;;;;;;;2.63;2.10;;;;;;;21.26;nan;-24407.88;4879945;29;20203;-65